createdAt,value
2022-10-13T00:00:50.293Z,96457.38
2022-10-13T00:03:18.119Z,95999.81
2022-10-13T00:05:47.476Z,96193.09
2022-10-13T00:08:17.337Z,96515.44
2022-10-13T00:10:44.579Z,96399.78
2022-10-13T00:13:12.316Z,96317.13
2022-10-13T00:15:44.757Z,96241.41
2022-10-13T00:18:12.136Z,96226.78
2022-10-13T00:20:48.774Z,96455.91
2022-10-13T00:23:16.758Z,96469.78
2022-10-13T00:25:48.792Z,96406.50
2022-10-13T00:28:18.690Z,96233.63
2022-10-13T00:30:46.843Z,96241.66
2022-10-13T00:33:14.363Z,96439.34
2022-10-13T00:35:46.336Z,96467.25
2022-10-13T00:38:13.739Z,96296.66
2022-10-13T00:40:55.660Z,96405.09
2022-10-13T00:43:46.976Z,96428.94
2022-10-13T00:46:14.975Z,96227.84
2022-10-13T00:48:43.285Z,96370.47
2022-10-13T00:51:12.148Z,96444.53
2022-10-13T00:53:40.936Z,96262.91
2022-10-13T00:56:11.419Z,96215.28
2022-10-13T00:58:40.616Z,96136.06
2022-10-13T01:01:08.322Z,96219.03
2022-10-13T01:03:36.167Z,96455.72
2022-10-13T01:06:05.195Z,96420.97
2022-10-13T01:08:33.501Z,96448.16
2022-10-13T01:11:09.152Z,96237.16
2022-10-13T01:13:46.484Z,96409.81
2022-10-13T01:16:22.296Z,96411.22
2022-10-13T01:18:52.532Z,96412.88
2022-10-13T01:21:31.933Z,96219.50
2022-10-13T01:24:02.120Z,96410.19
2022-10-13T01:26:40.751Z,96414.88
2022-10-13T01:29:16.549Z,96411.91
2022-10-13T01:32:18.292Z,96257.16
2022-10-13T01:35:12.050Z,96374.28
2022-10-13T01:37:47.988Z,96421.09
2022-10-13T01:40:39.100Z,96189.69
2022-10-13T01:43:14.408Z,96426.22
2022-10-13T01:46:07.752Z,96424.03
2022-10-13T01:48:38.088Z,96424.66
2022-10-13T01:51:09.189Z,96428.22
2022-10-13T01:53:36.900Z,96449.31
2022-10-13T01:56:03.898Z,96268.31
2022-10-13T01:58:34.534Z,96275.06
2022-10-13T02:01:20.011Z,96419.69
2022-10-13T02:04:24.589Z,96429.38
2022-10-13T02:07:03.940Z,96455.72
2022-10-13T02:09:43.815Z,96321.88
2022-10-13T02:12:19.408Z,96445.66
2022-10-13T02:14:49.320Z,96296.38
2022-10-13T02:17:17.238Z,96398.53
2022-10-13T02:19:45.355Z,96397.19
2022-10-13T02:22:15.293Z,96214.16
2022-10-13T02:24:42.396Z,96358.53
2022-10-13T02:27:09.535Z,96418.22
2022-10-13T02:29:53.686Z,96410.81
2022-10-13T02:32:21.612Z,96181.34
2022-10-13T02:34:49.736Z,96275.19
2022-10-13T02:37:17.291Z,96228.88
2022-10-13T02:39:44.131Z,96140.31
2022-10-13T02:42:11.080Z,96399.19
2022-10-13T02:44:38.117Z,96319.50
2022-10-13T02:47:05.237Z,96369.09
2022-10-13T02:49:32.178Z,96242.13
2022-10-13T02:51:59.430Z,96261.72
2022-10-13T02:54:26.197Z,96177.34
2022-10-13T02:56:52.997Z,96299.00
2022-10-13T02:59:20.277Z,96396.28
2022-10-13T03:01:47.132Z,96284.06
2022-10-13T03:04:13.912Z,96353.16
2022-10-13T03:06:40.793Z,96390.34
2022-10-13T03:09:07.700Z,96357.66
2022-10-13T03:11:34.740Z,96285.22
2022-10-13T03:14:02.903Z,96114.09
2022-10-13T03:16:29.719Z,96112.41
2022-10-13T03:18:56.680Z,96216.28
2022-10-13T03:21:23.901Z,96195.81
2022-10-13T03:23:50.873Z,95875.28
2022-10-13T03:26:17.770Z,96424.47
2022-10-13T03:28:49.445Z,96363.03
2022-10-13T03:31:17.565Z,96388.41
2022-10-13T03:33:45.482Z,96418.44
2022-10-13T03:36:13.436Z,96214.16
2022-10-13T03:38:40.492Z,96181.47
2022-10-13T03:41:09.937Z,96331.78
2022-10-13T03:43:37.101Z,95995.88
2022-10-13T03:46:05.987Z,95971.38
2022-10-13T03:48:34.053Z,96409.78
2022-10-13T03:51:04.874Z,96402.09
2022-10-13T03:53:31.673Z,96413.13
2022-10-13T03:55:58.610Z,96202.66
2022-10-13T03:58:25.994Z,96070.66
2022-10-13T04:00:52.859Z,96254.72
2022-10-13T04:03:20.062Z,96373.00
2022-10-13T04:05:47.679Z,96277.72
2022-10-13T04:08:14.835Z,96131.84
2022-10-13T04:10:42.406Z,96181.78
2022-10-13T04:13:09.483Z,96211.97
2022-10-13T04:15:38.229Z,96347.81
2022-10-13T04:18:07.296Z,96385.38
2022-10-13T04:20:40.771Z,96155.53
2022-10-13T04:23:07.914Z,96271.63
2022-10-13T04:25:36.355Z,95884.56
2022-10-13T04:28:05.578Z,96388.22
2022-10-13T04:30:38.001Z,96416.00
2022-10-13T04:33:05.795Z,96448.34
2022-10-13T04:35:33.329Z,96262.75
2022-10-13T04:38:00.380Z,95912.09
2022-10-13T04:40:27.400Z,96454.13
2022-10-13T04:42:54.598Z,96257.66
2022-10-13T04:45:21.697Z,96200.09
2022-10-13T04:47:49.016Z,96276.03
2022-10-13T04:50:16.056Z,96265.00
2022-10-13T04:52:42.917Z,96344.00
2022-10-13T04:55:10.012Z,96177.66
2022-10-13T04:57:37.233Z,96396.19
2022-10-13T05:00:05.437Z,96349.84
2022-10-13T05:02:32.275Z,96254.09
2022-10-13T05:04:59.192Z,96281.00
2022-10-13T05:07:25.947Z,96281.19
2022-10-13T05:09:53.055Z,96181.59
2022-10-13T05:12:20.371Z,96278.28
2022-10-13T05:14:47.592Z,96246.66
2022-10-13T05:17:14.596Z,96422.66
2022-10-13T05:19:41.677Z,96412.53
2022-10-13T05:22:08.373Z,96328.84
2022-10-13T05:24:35.469Z,96428.63
2022-10-13T05:27:09.121Z,96429.97
2022-10-13T05:29:37.290Z,96412.16
2022-10-13T05:32:04.457Z,96219.50
2022-10-13T05:34:31.875Z,96272.31
2022-10-13T05:36:59.678Z,96446.69
2022-10-13T05:39:26.575Z,96448.06
2022-10-13T05:41:53.518Z,96453.97
2022-10-13T05:44:21.215Z,96434.28
2022-10-13T05:46:48.007Z,96264.41
2022-10-13T05:49:14.937Z,96275.34
2022-10-13T05:51:45.379Z,96396.66
2022-10-13T05:54:21.518Z,96448.09
2022-10-13T05:56:55.584Z,96422.19
2022-10-13T05:59:27.156Z,96309.72
2022-10-13T06:01:55.134Z,96447.63
2022-10-13T06:04:32.137Z,96387.59
2022-10-13T06:06:59.117Z,96391.28
2022-10-13T06:09:32.580Z,96453.66
2022-10-13T06:11:59.621Z,96087.84
2022-10-13T06:14:26.445Z,96321.19
2022-10-13T06:16:53.259Z,96431.44
2022-10-13T06:19:20.357Z,96450.59
2022-10-13T06:21:47.488Z,96282.59
2022-10-13T06:24:14.290Z,96290.25
2022-10-13T06:26:41.395Z,96319.09
2022-10-13T06:29:08.269Z,96159.81
2022-10-13T06:31:35.353Z,96312.84
2022-10-13T06:34:02.511Z,96328.59
2022-10-13T06:36:29.311Z,96325.78
2022-10-13T06:38:56.399Z,96297.06
2022-10-13T06:41:23.376Z,96450.66
2022-10-13T06:43:50.296Z,96470.38
2022-10-13T06:46:17.442Z,96281.31
2022-10-13T06:48:44.744Z,96421.91
2022-10-13T06:51:12.518Z,96434.91
2022-10-13T06:53:39.473Z,96308.69
2022-10-13T06:56:07.681Z,96444.69
2022-10-13T06:58:35.857Z,96440.63
2022-10-13T07:01:03.157Z,96381.81
2022-10-13T07:03:30.149Z,96316.28
2022-10-13T07:06:04.958Z,96447.31
2022-10-13T07:08:34.847Z,96436.53
2022-10-13T07:11:14.546Z,96265.97
2022-10-13T07:13:46.193Z,96402.63
2022-10-13T07:16:14.912Z,96326.53
2022-10-13T07:18:41.977Z,96428.69
2022-10-13T07:21:09.777Z,96460.94
2022-10-13T07:23:36.756Z,96449.00
2022-10-13T07:26:11.255Z,96461.06
2022-10-13T07:28:39.112Z,96260.69
2022-10-13T07:31:11.372Z,96221.03
2022-10-13T07:33:38.954Z,96412.78
2022-10-13T07:36:06.275Z,96305.28
2022-10-13T07:38:33.246Z,96248.53
2022-10-13T07:41:05.238Z,96306.91
2022-10-13T07:43:32.286Z,96434.28
2022-10-13T07:45:59.914Z,96441.13
2022-10-13T07:48:27.496Z,96099.81
2022-10-13T07:50:54.490Z,96186.84
2022-10-13T07:53:21.503Z,96433.94
2022-10-13T07:55:48.978Z,96214.75
2022-10-13T07:58:16.044Z,96180.94
2022-10-13T08:00:42.969Z,96155.59
2022-10-13T08:03:10.322Z,96453.63
2022-10-13T08:05:37.885Z,96438.81
2022-10-13T08:08:04.834Z,96430.03
2022-10-13T08:10:31.965Z,96413.47
2022-10-13T08:12:58.852Z,96237.56
2022-10-13T08:15:26.753Z,96404.56
2022-10-13T08:17:53.871Z,96367.44
2022-10-13T08:20:20.798Z,96415.53
2022-10-13T08:22:47.655Z,96211.16
2022-10-13T08:25:14.589Z,96264.22
2022-10-13T08:27:51.132Z,96133.47
2022-10-13T08:30:19.887Z,96402.94
2022-10-13T08:32:46.954Z,96306.63
2022-10-13T08:35:13.828Z,96270.59
2022-10-13T08:37:41.012Z,96127.78
2022-10-13T08:40:12.098Z,95916.22
2022-10-13T08:42:44.322Z,96119.56
2022-10-13T08:45:40.488Z,96382.38
2022-10-13T08:48:22.021Z,96352.16
2022-10-13T08:50:57.805Z,96363.44
2022-10-13T08:53:43.833Z,96361.63
2022-10-13T08:56:30.759Z,96351.03
2022-10-13T08:58:57.914Z,96360.56
2022-10-13T09:01:33.709Z,96342.22
2022-10-13T09:04:32.840Z,96356.34
2022-10-13T09:07:07.317Z,96258.94
2022-10-13T09:09:34.435Z,96210.59
2022-10-13T09:12:02.073Z,96296.72
2022-10-13T09:14:32.428Z,96201.41
2022-10-13T09:17:23.390Z,96336.91
2022-10-13T09:20:04.515Z,96344.00
2022-10-13T09:22:34.716Z,96364.75
2022-10-13T09:25:07.098Z,96325.03
2022-10-13T09:27:53.934Z,96156.13
2022-10-13T09:30:38.658Z,96291.53
2022-10-13T09:33:08.686Z,96314.16
2022-10-13T09:35:37.641Z,96312.94
2022-10-13T09:38:21.079Z,96310.59
2022-10-13T09:41:02.573Z,96320.81
2022-10-13T09:43:35.399Z,96315.75
2022-10-13T09:46:11.536Z,96308.00
2022-10-13T09:48:40.713Z,96278.00
2022-10-13T09:51:27.491Z,95990.88
2022-10-13T09:53:54.421Z,96325.00
2022-10-13T09:56:37.197Z,96355.09
2022-10-13T09:59:25.112Z,96255.22
2022-10-13T10:01:55.911Z,96300.91
2022-10-13T10:04:26.263Z,96135.69
2022-10-13T10:06:53.109Z,96167.16
2022-10-13T10:09:22.631Z,96277.81
2022-10-13T10:11:53.174Z,96157.91
2022-10-13T10:14:34.706Z,96160.28
2022-10-13T10:17:26.199Z,96257.09
2022-10-13T10:20:10.812Z,96252.06
2022-10-13T10:23:05.259Z,96255.72
2022-10-13T10:25:45.902Z,96248.94
2022-10-13T10:28:34.005Z,96254.03
2022-10-13T10:31:06.752Z,96220.09
2022-10-13T10:33:55.117Z,96252.56
2022-10-13T10:36:39.536Z,96191.97
2022-10-13T10:39:32.632Z,96238.16
2022-10-13T10:42:25.468Z,96236.19
2022-10-13T10:44:56.485Z,96192.03
2022-10-13T10:47:43.526Z,96055.47
2022-10-13T10:50:15.453Z,96214.84
2022-10-13T10:53:07.308Z,96054.38
2022-10-13T10:55:39.984Z,96202.34
2022-10-13T10:58:25.123Z,96204.06
2022-10-13T11:00:56.056Z,96223.41
2022-10-13T11:03:40.618Z,96162.91
2022-10-13T11:06:13.274Z,96205.16
2022-10-13T11:08:45.816Z,96199.34
2022-10-13T11:11:26.789Z,96194.19
2022-10-13T11:14:07.466Z,96189.63
2022-10-13T11:16:55.954Z,96075.41
2022-10-13T11:19:36.001Z,96111.25
2022-10-13T11:22:02.790Z,96180.81
2022-10-13T11:24:42.130Z,96168.50
2022-10-13T11:27:08.989Z,96163.88
2022-10-13T11:29:45.056Z,96154.81
2022-10-13T11:32:44.459Z,96102.75
2022-10-13T11:35:11.113Z,96140.22
2022-10-13T11:38:06.114Z,96143.91
2022-10-13T11:40:42.150Z,96139.03
2022-10-13T11:43:17.973Z,96133.41
2022-10-13T11:46:01.915Z,95991.78
2022-10-13T11:48:47.275Z,96126.84
2022-10-13T11:51:48.871Z,96127.44
2022-10-13T11:54:47.536Z,96113.69
2022-10-13T11:57:26.127Z,96113.34
2022-10-13T11:59:55.676Z,96139.09
2022-10-13T12:02:25.925Z,95979.28
2022-10-13T12:05:24.097Z,96089.44
2022-10-13T12:07:57.202Z,96114.91
2022-10-13T12:10:35.876Z,96113.59
2022-10-13T12:13:03.873Z,96118.34
2022-10-13T12:15:35.435Z,96111.09
2022-10-13T12:18:04.058Z,95879.81
2022-10-13T12:20:33.131Z,96104.28
2022-10-13T12:23:00.316Z,96025.47
2022-10-13T12:25:30.331Z,95919.38
2022-10-13T12:28:00.568Z,96007.66
2022-10-13T12:30:34.819Z,95984.84
2022-10-13T12:33:01.997Z,96064.19
2022-10-13T12:35:31.689Z,95951.16
2022-10-13T12:38:02.378Z,95994.81
2022-10-13T12:40:30.155Z,96095.81
2022-10-13T12:42:57.479Z,96133.06
2022-10-13T12:45:31.783Z,95943.16
2022-10-13T12:47:58.893Z,95987.81
2022-10-13T12:50:25.673Z,96078.22
2022-10-13T12:52:55.438Z,95815.81
2022-10-13T12:55:23.458Z,96088.91
2022-10-13T12:57:51.694Z,96086.25
2022-10-13T13:00:22.492Z,96079.97
2022-10-13T13:03:06.269Z,96126.59
2022-10-13T13:05:34.390Z,96070.41
2022-10-13T13:08:02.273Z,96025.56
2022-10-13T13:10:29.514Z,95717.16
2022-10-13T13:12:57.079Z,95942.75
2022-10-13T13:15:37.998Z,95922.25
2022-10-13T13:18:31.283Z,96090.53
2022-10-13T13:20:58.654Z,95962.75
2022-10-13T13:23:25.443Z,96024.22
2022-10-13T13:26:24.808Z,96058.16
2022-10-13T13:28:54.199Z,95958.94
2022-10-13T13:31:23.716Z,96049.81
2022-10-13T13:33:51.234Z,95938.31
2022-10-13T13:36:19.382Z,96052.94
2022-10-13T13:38:46.613Z,95978.53
2022-10-13T13:41:14.127Z,96068.38
2022-10-13T13:43:41.645Z,95937.91
2022-10-13T13:46:16.237Z,96054.38
2022-10-13T13:48:43.150Z,95898.78
2022-10-13T13:51:10.971Z,96072.97
2022-10-13T13:53:37.988Z,96002.72
2022-10-13T13:56:05.528Z,96000.09
2022-10-13T13:58:32.469Z,96048.09
2022-10-13T14:01:00.365Z,96022.47
2022-10-13T14:03:27.317Z,96017.53
2022-10-13T14:05:54.088Z,95903.44
2022-10-13T14:08:21.221Z,95923.75
2022-10-13T14:10:48.128Z,96033.13
2022-10-13T14:13:15.038Z,96055.28
2022-10-13T14:15:42.119Z,96015.28
2022-10-13T14:18:08.962Z,95920.50
2022-10-13T14:20:35.777Z,95836.06
2022-10-13T14:23:02.995Z,95930.06
2022-10-13T14:25:29.759Z,95861.38
2022-10-13T14:27:56.496Z,96028.94
2022-10-13T14:30:23.925Z,96033.09
2022-10-13T14:32:50.716Z,96037.66
2022-10-13T14:35:17.736Z,95833.53
2022-10-13T14:37:44.926Z,96049.06
2022-10-13T14:40:11.800Z,95872.84
2022-10-13T14:42:38.592Z,96045.44
2022-10-13T14:45:06.441Z,95946.25
2022-10-13T14:47:33.314Z,96049.03
2022-10-13T14:50:00.243Z,95889.56
2022-10-13T14:52:27.114Z,95958.91
2022-10-13T14:54:54.012Z,96040.78
2022-10-13T14:57:21.097Z,95912.13
2022-10-13T14:59:48.402Z,95988.03
2022-10-13T15:02:15.658Z,95764.44
2022-10-13T15:04:42.470Z,96072.28
2022-10-13T15:07:09.550Z,95942.47
2022-10-13T15:09:53.208Z,95946.25
2022-10-13T15:12:23.826Z,95931.94
2022-10-13T15:14:50.897Z,95926.75
2022-10-13T15:17:17.813Z,95849.22
2022-10-13T15:19:44.816Z,95862.84
2022-10-13T15:22:11.645Z,96007.09
2022-10-13T15:24:38.441Z,95889.44
2022-10-13T15:27:07.561Z,96031.13
2022-10-13T15:29:34.535Z,96003.63
2022-10-13T15:32:11.514Z,96076.44
2022-10-13T15:34:41.447Z,95929.81
2022-10-13T15:37:14.248Z,95901.50
2022-10-13T15:39:41.097Z,95864.22
2022-10-13T15:42:08.017Z,95720.13
2022-10-13T15:44:57.330Z,95646.41
2022-10-13T15:47:21.892Z,96054.25
2022-10-13T15:49:49.093Z,96053.28
2022-10-13T15:52:16.001Z,95941.94
2022-10-13T15:54:43.117Z,96037.66
2022-10-13T15:57:09.995Z,95935.88
2022-10-13T15:59:36.817Z,95970.47
2022-10-13T16:02:03.735Z,95913.09
2022-10-13T16:04:34.803Z,95878.19
2022-10-13T16:07:04.778Z,96011.88
2022-10-13T16:09:31.922Z,96045.47
2022-10-13T16:11:59.017Z,95968.78
2022-10-13T16:14:26.068Z,96044.97
2022-10-13T16:16:52.914Z,96050.66
2022-10-13T16:19:20.008Z,95918.25
2022-10-13T16:21:47.471Z,96071.53
2022-10-13T16:24:14.394Z,95883.91
2022-10-13T16:26:41.258Z,95898.03
2022-10-13T16:29:08.415Z,96050.75
2022-10-13T16:31:35.450Z,95896.06
2022-10-13T16:34:02.749Z,96043.56
2022-10-13T16:36:39.096Z,95990.31
2022-10-13T16:39:05.990Z,96044.34
2022-10-13T16:41:32.963Z,95995.09
2022-10-13T16:44:00.117Z,95883.47
2022-10-13T16:46:28.180Z,95745.50
2022-10-13T16:48:55.355Z,95775.00
2022-10-13T16:51:24.867Z,95770.91
2022-10-13T16:53:54.114Z,95991.31
2022-10-13T16:56:22.443Z,95949.19
2022-10-13T16:58:51.396Z,95901.97
2022-10-13T17:01:18.445Z,95889.13
2022-10-13T17:03:46.440Z,96061.84
2022-10-13T17:06:14.641Z,95878.09
2022-10-13T17:08:42.538Z,96037.78
2022-10-13T17:11:15.440Z,96065.72
2022-10-13T17:13:42.873Z,95904.81
2022-10-13T17:16:12.657Z,95952.84
2022-10-13T17:18:39.937Z,96072.66
2022-10-13T17:21:10.060Z,95922.53
2022-10-13T17:23:37.918Z,95933.06
2022-10-13T17:26:11.114Z,95899.97
2022-10-13T17:28:39.228Z,96039.91
2022-10-13T17:31:12.027Z,96029.38
2022-10-13T17:33:40.377Z,95840.69
2022-10-13T17:36:19.228Z,95885.88
2022-10-13T17:38:46.899Z,96076.44
2022-10-13T17:41:14.464Z,95950.84
2022-10-13T17:43:42.312Z,96061.78
2022-10-13T17:46:42.599Z,96033.28
2022-10-13T17:49:12.201Z,95878.13
2022-10-13T17:51:40.728Z,95811.69
2022-10-13T17:54:11.592Z,96043.03
2022-10-13T17:56:42.177Z,95893.03
2022-10-13T17:59:09.086Z,95882.47
2022-10-13T18:01:36.307Z,96071.56
2022-10-13T18:04:06.656Z,96069.50
2022-10-13T18:06:38.632Z,96068.22
2022-10-13T18:09:18.393Z,96070.56
2022-10-13T18:11:50.721Z,96073.63
2022-10-13T18:14:20.270Z,96073.63
2022-10-13T18:16:47.589Z,95952.56
2022-10-13T18:19:15.164Z,95918.38
2022-10-13T18:21:42.292Z,96042.78
2022-10-13T18:24:10.658Z,96075.16
2022-10-13T18:26:37.758Z,96057.94
2022-10-13T18:29:07.329Z,95900.34
2022-10-13T18:31:37.059Z,96077.22
2022-10-13T18:34:08.197Z,95878.44
2022-10-13T18:36:38.359Z,96028.59
2022-10-13T18:39:14.293Z,96089.50
2022-10-13T18:41:42.258Z,96084.06
2022-10-13T18:44:10.039Z,95932.53
2022-10-13T18:46:38.923Z,96094.38
2022-10-13T18:49:07.933Z,95925.97
2022-10-13T18:51:36.424Z,96082.28
2022-10-13T18:54:05.090Z,95965.25
2022-10-13T18:56:33.180Z,96086.94
2022-10-13T18:59:02.376Z,96083.88
2022-10-13T19:01:32.258Z,96104.94
2022-10-13T19:03:59.758Z,95836.28
2022-10-13T19:06:28.580Z,95982.22
2022-10-13T19:09:01.133Z,96105.19
2022-10-13T19:11:29.336Z,95973.53
2022-10-13T19:13:57.765Z,95762.81
2022-10-13T19:16:27.047Z,95559.09
2022-10-13T19:18:54.093Z,96113.66
2022-10-13T19:21:22.477Z,96075.06
2022-10-13T19:23:49.970Z,95997.16
2022-10-13T19:26:19.921Z,96061.50
2022-10-13T19:28:47.392Z,95934.97
2022-10-13T19:31:17.917Z,96041.59
2022-10-13T19:33:45.715Z,96090.16
2022-10-13T19:36:24.004Z,95928.81
2022-10-13T19:38:51.396Z,95841.97
2022-10-13T19:41:18.497Z,96068.28
2022-10-13T19:43:45.436Z,95864.25
2022-10-13T19:46:12.468Z,95910.97
2022-10-13T19:48:39.334Z,96068.41
2022-10-13T19:51:08.440Z,96104.53
2022-10-13T19:53:36.133Z,96066.50
2022-10-13T19:56:03.006Z,95846.06
2022-10-13T19:58:30.326Z,95907.44
2022-10-13T20:01:02.710Z,95921.19
2022-10-13T20:03:29.698Z,96065.88
2022-10-13T20:06:09.923Z,95516.47
2022-10-13T20:08:42.816Z,95450.03
2022-10-13T20:11:12.634Z,95743.94
2022-10-13T20:13:39.729Z,95708.47
2022-10-13T20:16:08.964Z,96001.41
2022-10-13T20:18:39.275Z,95929.88
2022-10-13T20:21:09.317Z,95929.03
2022-10-13T20:23:36.835Z,96012.63
2022-10-13T20:26:09.993Z,96064.13
2022-10-13T20:28:42.885Z,96065.13
2022-10-13T20:31:11.639Z,96051.28
2022-10-13T20:33:39.035Z,95826.41
2022-10-13T20:36:08.609Z,96019.47
2022-10-13T20:38:36.393Z,96078.88
2022-10-13T20:41:05.294Z,95978.63
2022-10-13T20:43:32.580Z,95970.47
2022-10-13T20:46:05.201Z,96079.84
2022-10-13T20:48:45.572Z,95978.03
2022-10-13T20:51:24.148Z,96052.50
2022-10-13T20:53:51.175Z,95803.06
2022-10-13T20:56:21.551Z,96053.06
2022-10-13T20:58:49.375Z,96032.56
2022-10-13T21:01:17.553Z,95940.78
2022-10-13T21:03:44.512Z,95910.56
2022-10-13T21:06:13.795Z,95908.16
2022-10-13T21:08:44.135Z,96080.84
2022-10-13T21:11:13.732Z,96054.00
2022-10-13T21:13:42.347Z,96086.56
2022-10-13T21:16:21.400Z,96044.34
2022-10-13T21:18:50.023Z,96048.59
2022-10-13T21:21:23.040Z,96071.28
2022-10-13T21:23:53.996Z,95971.66
2022-10-13T21:26:22.446Z,96009.91
2022-10-13T21:28:50.676Z,96040.63
2022-10-13T21:31:19.555Z,96047.16
2022-10-13T21:33:46.714Z,95899.97
2022-10-13T21:36:20.396Z,96039.28
2022-10-13T21:38:50.199Z,95899.38
2022-10-13T21:41:19.643Z,95854.44
2022-10-13T21:43:47.976Z,95854.09
2022-10-13T21:46:20.884Z,95889.13
2022-10-13T21:48:48.542Z,95782.34
2022-10-13T21:51:21.657Z,96022.34
2022-10-13T21:53:54.213Z,95878.09
2022-10-13T21:56:22.638Z,95877.13
2022-10-13T21:58:50.080Z,95841.44
2022-10-13T22:01:18.726Z,96018.88
2022-10-13T22:03:47.164Z,95939.78
2022-10-13T22:06:19.083Z,95985.88
2022-10-13T22:08:49.447Z,95853.88
2022-10-13T22:11:18.456Z,96009.72
2022-10-13T22:13:46.115Z,95852.38
2022-10-13T22:16:18.421Z,96012.03
2022-10-13T22:18:47.158Z,96007.47
2022-10-13T22:21:17.522Z,95862.19
2022-10-13T22:23:46.265Z,95851.53
2022-10-13T22:26:15.431Z,96014.16
2022-10-13T22:28:42.816Z,96008.56
2022-10-13T22:31:12.961Z,96013.31
2022-10-13T22:33:41.379Z,96021.47
2022-10-13T22:36:19.701Z,95877.97
2022-10-13T22:38:49.240Z,96019.31
2022-10-13T22:41:18.165Z,96021.34
2022-10-13T22:43:49.482Z,95892.31
2022-10-13T22:46:18.806Z,95901.81
2022-10-13T22:48:46.217Z,96008.75
2022-10-13T22:51:16.611Z,95856.47
2022-10-13T22:53:44.252Z,96005.47
2022-10-13T22:56:17.535Z,95847.28
2022-10-13T22:58:48.538Z,95825.09
2022-10-13T23:01:16.395Z,96023.72
2022-10-13T23:03:46.501Z,95973.31
2022-10-13T23:06:15.648Z,96031.03
2022-10-13T23:08:42.870Z,95999.97
2022-10-13T23:11:10.366Z,95728.53
2022-10-13T23:13:37.612Z,96009.47
2022-10-13T23:16:11.963Z,95978.13
2022-10-13T23:18:39.638Z,95790.63
2022-10-13T23:21:13.126Z,95989.84
2022-10-13T23:23:40.457Z,95773.84
2022-10-13T23:26:13.843Z,96015.22
2022-10-13T23:28:41.083Z,95872.69
2022-10-13T23:31:14.965Z,95873.53
2022-10-13T23:33:42.076Z,95819.09
2022-10-13T23:36:11.366Z,96035.69
2022-10-13T23:38:38.679Z,95809.41
2022-10-13T23:41:10.978Z,95979.94
2022-10-13T23:43:38.237Z,95897.31
2022-10-13T23:46:05.950Z,96016.53
2022-10-13T23:48:33.241Z,95967.16
2022-10-13T23:51:10.478Z,96038.91
2022-10-13T23:53:38.398Z,96040.66
2022-10-13T23:56:06.951Z,95933.50
2022-10-13T23:58:36.756Z,96010.78
